Stk-1004 — UBEM — position and weather

sailwx.info

Track history (hours):
 
Tides and Currents Weather Stations Pressure Air Temp Water Temp Dewpoint Dewpoint Depression Visibility Wind Speed Wind Dir Waves Ship Positions

Stk-1004

Last reported at 2016-Nov-19 05:33 UTC. Time now 2016-Dec-06 18:05 UTC.
Position N 59°60' E 029°39'.
Warning: this ship's position is 17 days out of date.

Length 82 m; draft 2.5 m.

Type: Cargo ship. MMSI: 273439130.

Date/timePositionNaut miles runAvg speedWind from/ knotsBaromVisibWave heightAir tempDewpointWater temp
2016-Nov-19 05:33N 59°60' E 029°39'  
2016-Nov-13 05:33N 59°53' E 030°13'0 0.0
2016-Nov-13 03:33N 59°53' E 030°13'6 1.5
2016-Nov-12 23:26N 59°56' E 030°24'1 0.4
2016-Nov-12 21:33N 59°55' E 030°24'0 0.0
2016-Nov-12 19:33N 59°55' E 030°24'0 0.0
2016-Nov-12 17:33N 59°55' E 030°24'0 0.0
2016-Nov-12 16:33N 59°55' E 030°24'0 0.0
2016-Nov-12 15:33N 59°55' E 030°24'0 0.0
2016-Nov-12 14:33N 59°55' E 030°24'0 0.0
2016-Nov-12 13:33N 59°55' E 030°24'0 0.0
2016-Nov-12 12:33N 59°55' E 030°24'0 0.0
2016-Nov-12 11:33N 59°55' E 030°24'0 0.0
2016-Nov-12 09:34N 59°55' E 030°24'0 0.0
2016-Nov-12 06:34N 59°55' E 030°24'0 0.0
2016-Nov-12 03:33N 59°55' E 030°24'0 0.0
2016-Nov-12 02:33N 59°55' E 030°24'1 0.5
2016-Nov-12 00:33N 59°55' E 030°25'2 2.0
2016-Nov-11 23:32N 59°53' E 030°27'  
Track history (hours):
 
Tides and Currents Weather Stations Pressure Air Temp Water Temp Dewpoint Dewpoint Depression Visibility Wind Speed Wind Dir Waves Ship Positions

Stk-1004

Last reported at 2016-Nov-19 05:33 UTC. Time now 2016-Dec-06 18:05 UTC.
Position N 59°60' E 029°39'.
Warning: this ship's position is 17 days out of date.

Length 82 m; draft 2.5 m.

Type: Cargo ship. MMSI: 273439130.

Date/timePositionNaut miles runAvg speedWind from/ knotsBaromVisibWave heightAir tempDewpointWater temp
2016-Nov-19 05:33N 59°60' E 029°39'  
2016-Nov-13 05:33N 59°53' E 030°13'0 0.0
2016-Nov-13 03:33N 59°53' E 030°13'6 1.5
2016-Nov-12 23:26N 59°56' E 030°24'1 0.4
2016-Nov-12 21:33N 59°55' E 030°24'0 0.0
2016-Nov-12 19:33N 59°55' E 030°24'0 0.0
2016-Nov-12 17:33N 59°55' E 030°24'0 0.0
2016-Nov-12 16:33N 59°55' E 030°24'0 0.0
2016-Nov-12 15:33N 59°55' E 030°24'0 0.0
2016-Nov-12 14:33N 59°55' E 030°24'0 0.0
2016-Nov-12 13:33N 59°55' E 030°24'0 0.0
2016-Nov-12 12:33N 59°55' E 030°24'0 0.0
2016-Nov-12 11:33N 59°55' E 030°24'0 0.0
2016-Nov-12 09:34N 59°55' E 030°24'0 0.0
2016-Nov-12 06:34N 59°55' E 030°24'0 0.0
2016-Nov-12 03:33N 59°55' E 030°24'0 0.0
2016-Nov-12 02:33N 59°55' E 030°24'1 0.5
2016-Nov-12 00:33N 59°55' E 030°25'2 2.0
2016-Nov-11 23:32N 59°53' E 030°27'  

Dump ship's entire track history